createdAt,value
2018-05-29T00:01:19.048Z,22.00
2018-05-29T00:03:46.920Z,22.00
2018-05-29T00:06:14.773Z,22.00
2018-05-29T00:08:42.650Z,22.00
2018-05-29T00:11:10.534Z,21.90
2018-05-29T00:13:38.422Z,21.90
2018-05-29T00:16:07.092Z,21.90
2018-05-29T00:18:34.996Z,21.90
2018-05-29T00:21:02.878Z,21.90
2018-05-29T00:23:30.738Z,21.90
2018-05-29T00:25:58.629Z,21.90
2018-05-29T00:28:26.517Z,21.90
2018-05-29T00:30:54.384Z,21.90
2018-05-29T00:33:22.239Z,21.90
2018-05-29T00:35:50.124Z,21.90
2018-05-29T00:38:17.976Z,21.90
2018-05-29T00:40:45.847Z,21.80
2018-05-29T00:43:13.715Z,21.80
2018-05-29T00:45:41.614Z,21.80
2018-05-29T00:48:10.258Z,21.80
2018-05-29T00:50:38.119Z,21.80
2018-05-29T00:53:05.989Z,21.80
2018-05-29T00:55:37.875Z,21.80
2018-05-29T00:58:06.545Z,21.80
2018-05-29T01:00:34.433Z,21.80
2018-05-29T01:03:03.066Z,21.70
2018-05-29T01:05:30.924Z,21.70
2018-05-29T01:07:58.795Z,21.70
2018-05-29T01:10:26.724Z,21.60
2018-05-29T01:12:55.353Z,21.70
2018-05-29T01:15:23.261Z,21.60
2018-05-29T01:17:51.163Z,21.60
2018-05-29T01:20:19.037Z,21.60
2018-05-29T01:22:46.908Z,21.60
2018-05-29T01:25:14.764Z,21.60
2018-05-29T01:27:42.618Z,21.60
2018-05-29T01:30:10.459Z,21.60
2018-05-29T01:32:39.094Z,21.50
2018-05-29T01:35:06.956Z,21.50
2018-05-29T01:37:34.811Z,21.50
2018-05-29T01:40:02.690Z,21.50
2018-05-29T01:42:30.546Z,21.50
2018-05-29T01:44:58.396Z,21.50
2018-05-29T01:47:26.993Z,21.50
2018-05-29T01:49:54.843Z,21.50
2018-05-29T01:52:23.468Z,21.50
2018-05-29T01:54:51.341Z,21.50
2018-05-29T01:57:19.182Z,21.50
2018-05-29T01:59:47.030Z,21.50
2018-05-29T02:02:15.633Z,21.50
2018-05-29T02:04:43.500Z,21.50
2018-05-29T02:07:11.333Z,21.50
2018-05-29T02:09:40.012Z,21.50
2018-05-29T02:12:07.851Z,21.50
2018-05-29T02:14:35.706Z,21.50
2018-05-29T02:17:03.568Z,21.40
2018-05-29T02:19:31.468Z,21.40
2018-05-29T02:21:59.324Z,21.40
2018-05-29T02:24:27.205Z,21.40
2018-05-29T02:26:55.067Z,21.40
2018-05-29T02:29:22.916Z,21.40
2018-05-29T02:31:50.809Z,21.40
2018-05-29T02:34:18.668Z,21.40
2018-05-29T02:36:46.562Z,21.40
2018-05-29T02:39:14.431Z,21.40
2018-05-29T02:41:43.065Z,21.40
2018-05-29T02:44:10.932Z,21.40
2018-05-29T02:46:38.776Z,21.40
2018-05-29T02:49:06.651Z,21.30
2018-05-29T02:51:34.534Z,21.30
2018-05-29T02:54:02.409Z,21.30
2018-05-29T02:56:30.292Z,21.30
2018-05-29T02:58:58.156Z,21.30
2018-05-29T03:01:26.062Z,21.30
2018-05-29T03:03:53.953Z,21.30
2018-05-29T03:06:21.845Z,21.20
2018-05-29T03:08:49.729Z,21.20
2018-05-29T03:11:17.890Z,21.20
2018-05-29T03:13:45.787Z,21.20
2018-05-29T03:16:14.445Z,21.20
2018-05-29T03:18:42.321Z,21.20
2018-05-29T03:21:10.165Z,21.20
2018-05-29T03:23:38.087Z,21.20
2018-05-29T03:26:05.946Z,21.20
2018-05-29T03:28:34.574Z,21.20
2018-05-29T03:31:02.453Z,21.20
2018-05-29T03:33:30.340Z,21.10
2018-05-29T03:35:58.247Z,21.20
2018-05-29T03:38:26.098Z,21.20
2018-05-29T03:40:54.746Z,21.10
2018-05-29T03:43:22.612Z,21.10
2018-05-29T03:45:50.524Z,21.20
2018-05-29T03:48:18.360Z,21.10
2018-05-29T03:50:46.984Z,21.10
2018-05-29T03:53:14.871Z,21.10
2018-05-29T03:55:42.769Z,21.20
2018-05-29T03:58:10.636Z,21.20
2018-05-29T04:00:38.581Z,21.20
2018-05-29T04:03:06.479Z,21.20
2018-05-29T04:05:35.275Z,21.20
2018-05-29T04:08:03.920Z,21.20
2018-05-29T04:10:31.793Z,21.20
2018-05-29T04:12:59.695Z,21.20
2018-05-29T04:15:28.365Z,21.20
2018-05-29T04:17:56.250Z,21.20
2018-05-29T04:20:24.881Z,21.20
2018-05-29T04:22:52.807Z,21.20
2018-05-29T04:25:21.389Z,21.20
2018-05-29T04:27:50.045Z,21.20
2018-05-29T04:30:17.937Z,21.20
2018-05-29T04:32:46.529Z,21.20
2018-05-29T04:35:15.189Z,21.20
2018-05-29T04:37:43.137Z,21.20
2018-05-29T04:40:11.042Z,21.20
2018-05-29T04:42:39.675Z,21.20
2018-05-29T04:45:07.527Z,21.20
2018-05-29T04:47:35.387Z,21.20
2018-05-29T04:50:03.294Z,21.10
2018-05-29T04:52:31.171Z,21.20
2018-05-29T04:54:59.027Z,21.10
2018-05-29T04:57:26.863Z,21.10
2018-05-29T04:59:54.749Z,21.10
2018-05-29T05:02:22.604Z,21.20
2018-05-29T05:04:50.458Z,21.20
2018-05-29T05:07:18.326Z,21.20
2018-05-29T05:09:46.174Z,21.20
2018-05-29T05:12:14.048Z,21.20
2018-05-29T05:14:41.909Z,21.20
2018-05-29T05:17:09.737Z,21.20
2018-05-29T05:19:37.568Z,21.30
2018-05-29T05:22:05.443Z,21.30
2018-05-29T05:24:33.280Z,21.30
2018-05-29T05:27:01.141Z,21.30
2018-05-29T05:29:29.028Z,21.30
2018-05-29T05:31:56.875Z,21.30
2018-05-29T05:34:24.771Z,21.30
2018-05-29T05:36:52.642Z,21.40
2018-05-29T05:39:20.541Z,21.60
2018-05-29T05:41:48.387Z,21.70
2018-05-29T05:44:16.268Z,21.80
2018-05-29T05:46:44.147Z,21.80
2018-05-29T05:49:11.990Z,21.80
2018-05-29T05:51:39.879Z,21.90
2018-05-29T05:54:07.745Z,22.00
2018-05-29T05:56:35.588Z,22.00
2018-05-29T05:59:03.481Z,22.10
2018-05-29T06:01:32.117Z,22.30
2018-05-29T06:04:00.020Z,22.20
2018-05-29T06:06:27.891Z,22.30
2018-05-29T06:08:55.780Z,22.50
2018-05-29T06:11:24.381Z,22.70
2018-05-29T06:13:52.242Z,22.60
2018-05-29T06:16:20.085Z,22.60
2018-05-29T06:18:48.709Z,22.60
2018-05-29T06:21:16.589Z,22.60
2018-05-29T06:23:44.426Z,22.60
2018-05-29T06:26:12.277Z,22.70
2018-05-29T06:28:40.934Z,22.80
2018-05-29T06:31:08.796Z,22.70
2018-05-29T06:33:36.645Z,22.80
2018-05-29T06:36:04.550Z,22.80
2018-05-29T06:38:33.178Z,22.70
2018-05-29T06:41:01.072Z,22.70
2018-05-29T06:43:28.967Z,22.70
2018-05-29T06:45:56.894Z,22.70
2018-05-29T06:48:24.745Z,22.70
2018-05-29T06:50:52.651Z,22.70
2018-05-29T06:53:20.575Z,22.70
2018-05-29T06:55:48.435Z,22.70
2018-05-29T06:58:16.305Z,22.60
2018-05-29T07:00:44.180Z,22.60
2018-05-29T07:03:12.124Z,22.60
2018-05-29T07:05:40.754Z,22.60
2018-05-29T07:08:08.621Z,22.60
2018-05-29T07:10:36.506Z,22.60
2018-05-29T07:13:04.373Z,22.60
2018-05-29T07:15:32.320Z,22.60
2018-05-29T07:18:00.174Z,22.60
2018-05-29T07:20:28.107Z,22.60
2018-05-29T07:22:56.720Z,22.70
2018-05-29T07:25:24.586Z,22.70
2018-05-29T07:27:52.413Z,22.70
2018-05-29T07:30:21.077Z,22.80
2018-05-29T07:32:48.947Z,22.80
2018-05-29T07:35:16.794Z,22.90
2018-05-29T07:37:44.661Z,23.00
2018-05-29T07:40:13.125Z,23.00
2018-05-29T07:42:41.002Z,23.10
2018-05-29T07:45:08.877Z,23.20
2018-05-29T07:47:36.782Z,23.20
2018-05-29T07:50:05.440Z,23.30
2018-05-29T07:52:33.324Z,23.30
2018-05-29T07:55:01.180Z,23.30
2018-05-29T07:57:29.061Z,23.30
2018-05-29T07:59:57.709Z,23.40
2018-05-29T08:02:25.570Z,23.30
2018-05-29T08:04:53.417Z,23.40
2018-05-29T08:07:21.252Z,23.40
2018-05-29T08:09:49.890Z,23.40
2018-05-29T08:12:17.758Z,23.40
2018-05-29T08:14:45.648Z,23.40
2018-05-29T08:17:13.496Z,23.40
2018-05-29T08:19:41.378Z,23.50
2018-05-29T08:22:09.247Z,23.50
2018-05-29T08:24:37.141Z,23.50
2018-05-29T08:27:05.019Z,23.60
2018-05-29T08:29:32.863Z,23.60
2018-05-29T08:32:01.485Z,23.70
2018-05-29T08:34:29.375Z,23.70
2018-05-29T08:36:57.252Z,23.80
2018-05-29T08:39:25.148Z,23.80
2018-05-29T08:41:52.994Z,23.90
2018-05-29T08:44:20.827Z,23.90
2018-05-29T08:46:48.661Z,23.90
2018-05-29T08:49:17.456Z,23.90
2018-05-29T08:51:45.346Z,23.90
2018-05-29T08:54:13.268Z,24.00
2018-05-29T08:56:41.914Z,24.00
2018-05-29T08:59:10.578Z,24.00
2018-05-29T09:01:38.468Z,24.00
2018-05-29T09:04:06.351Z,24.10
2018-05-29T09:06:34.245Z,24.10
2018-05-29T09:09:02.891Z,24.20
2018-05-29T09:11:30.757Z,24.20
2018-05-29T09:13:58.592Z,24.20
2018-05-29T09:16:26.447Z,24.30
2018-05-29T09:18:54.383Z,24.30
2018-05-29T09:21:22.257Z,24.30
2018-05-29T09:23:50.867Z,24.40
2018-05-29T09:26:18.845Z,24.40
2018-05-29T09:28:46.688Z,24.40
2018-05-29T09:31:15.332Z,24.50
2018-05-29T09:33:43.200Z,24.40
2018-05-29T09:36:11.056Z,24.50
2018-05-29T09:38:38.920Z,24.50
2018-05-29T09:41:06.797Z,24.50
2018-05-29T09:43:34.640Z,24.50
2018-05-29T09:46:02.529Z,24.60
2018-05-29T09:48:30.421Z,24.60
2018-05-29T09:50:58.297Z,24.70
2018-05-29T09:53:26.923Z,24.70
2018-05-29T09:55:54.843Z,24.70
2018-05-29T09:58:22.689Z,24.70
2018-05-29T10:00:50.575Z,24.80
2018-05-29T10:03:18.451Z,24.80
2018-05-29T10:05:47.098Z,24.90
2018-05-29T10:08:14.949Z,24.80
2018-05-29T10:10:42.827Z,24.90
2018-05-29T10:13:10.686Z,25.00
2018-05-29T10:15:38.534Z,25.10
2018-05-29T10:18:06.402Z,25.10
2018-05-29T10:20:34.272Z,25.20
2018-05-29T10:23:02.137Z,25.40
2018-05-29T10:25:30.048Z,25.50
2018-05-29T10:27:57.890Z,25.60
2018-05-29T10:30:25.798Z,25.70
2018-05-29T10:32:53.680Z,25.90
2018-05-29T10:35:22.273Z,26.20
2018-05-29T10:37:50.103Z,26.20
2018-05-29T10:40:18.022Z,26.30
2018-05-29T10:42:45.891Z,26.50
2018-05-29T10:45:13.774Z,26.80
2018-05-29T10:47:41.658Z,27.20
2018-05-29T10:50:09.560Z,27.60
2018-05-29T10:52:38.211Z,28.30
2018-05-29T10:55:06.085Z,28.30
2018-05-29T10:57:33.936Z,28.60
2018-05-29T11:00:01.766Z,28.90
2018-05-29T11:02:29.707Z,29.00
2018-05-29T11:04:58.404Z,29.40
2018-05-29T11:07:27.059Z,29.50
2018-05-29T11:09:54.932Z,29.50
2018-05-29T11:12:22.813Z,29.70
2018-05-29T11:14:51.486Z,30.00
2018-05-29T11:17:19.384Z,30.00
2018-05-29T11:19:47.271Z,30.30
2018-05-29T11:22:15.205Z,30.40
2018-05-29T11:24:43.855Z,30.80
2018-05-29T11:27:11.737Z,30.70
2018-05-29T11:29:39.633Z,31.00
2018-05-29T11:32:07.473Z,31.20
2018-05-29T11:34:35.370Z,31.40
2018-05-29T11:37:03.293Z,31.50
2018-05-29T11:39:31.164Z,31.70
2018-05-29T11:41:59.022Z,31.80
2018-05-29T11:44:26.898Z,31.90
2018-05-29T11:46:54.792Z,32.00
2018-05-29T11:49:23.416Z,32.20
2018-05-29T11:51:51.305Z,32.20
2018-05-29T11:54:19.194Z,32.30
2018-05-29T11:56:47.032Z,32.30
2018-05-29T11:59:15.718Z,32.30
2018-05-29T12:01:44.329Z,32.30
2018-05-29T12:04:12.211Z,32.30
2018-05-29T12:06:40.882Z,32.50
2018-05-29T12:09:08.758Z,32.50
2018-05-29T12:11:37.391Z,32.70
2018-05-29T12:14:05.295Z,32.70
2018-05-29T12:16:33.157Z,32.80
2018-05-29T12:19:01.012Z,32.90
2018-05-29T12:21:28.898Z,32.90
2018-05-29T12:23:56.778Z,32.90
2018-05-29T12:26:25.384Z,33.10
2018-05-29T12:28:53.291Z,33.00
2018-05-29T12:31:21.186Z,33.10
2018-05-29T12:33:49.028Z,33.10
2018-05-29T12:36:16.962Z,33.20
2018-05-29T12:38:44.870Z,33.20
2018-05-29T12:41:12.735Z,33.10
2018-05-29T12:43:40.631Z,33.00
2018-05-29T12:46:09.340Z,32.70
2018-05-29T12:48:38.862Z,32.60
2018-05-29T12:51:06.758Z,32.50
2018-05-29T12:53:34.618Z,32.40
2018-05-29T12:56:02.536Z,32.30
2018-05-29T12:58:31.173Z,32.00
2018-05-29T13:00:59.052Z,32.00
2018-05-29T13:03:27.046Z,31.90
2018-05-29T13:05:55.700Z,31.50
2018-05-29T13:08:23.619Z,31.60
2018-05-29T13:10:51.510Z,31.40
2018-05-29T13:13:19.350Z,31.30
2018-05-29T13:15:47.227Z,31.10
2018-05-29T13:18:15.166Z,31.00
2018-05-29T13:20:43.816Z,30.70
2018-05-29T13:23:11.701Z,30.70
2018-05-29T13:25:39.562Z,30.70
2018-05-29T13:28:07.494Z,30.60
2018-05-29T13:30:35.358Z,30.50
2018-05-29T13:33:03.221Z,30.40
2018-05-29T13:35:31.080Z,30.30
2018-05-29T13:37:59.021Z,30.20
2018-05-29T13:40:27.740Z,30.20
2018-05-29T13:42:55.629Z,30.20
2018-05-29T13:45:23.493Z,30.10
2018-05-29T13:47:51.341Z,30.10
2018-05-29T13:50:19.186Z,30.00
2018-05-29T13:52:47.040Z,30.00
2018-05-29T13:55:15.674Z,29.90
2018-05-29T13:57:43.528Z,29.90
2018-05-29T14:00:11.404Z,29.90
2018-05-29T14:02:39.295Z,29.90
2018-05-29T14:05:07.205Z,29.90
2018-05-29T14:07:35.832Z,29.80
2018-05-29T14:10:03.777Z,29.80
2018-05-29T14:12:31.641Z,29.70
2018-05-29T14:14:59.499Z,29.70
2018-05-29T14:17:27.353Z,29.70
2018-05-29T14:19:56.038Z,29.70
2018-05-29T14:22:24.657Z,29.60
2018-05-29T14:24:52.527Z,29.60
2018-05-29T14:27:20.428Z,29.60
2018-05-29T14:29:48.311Z,29.60
2018-05-29T14:32:16.932Z,29.60
2018-05-29T14:34:44.788Z,29.50
2018-05-29T14:37:12.660Z,29.60
2018-05-29T14:39:40.545Z,29.50
2018-05-29T14:42:08.388Z,29.50
2018-05-29T14:44:36.279Z,29.50
2018-05-29T14:47:04.177Z,29.50
2018-05-29T14:49:32.028Z,29.50
2018-05-29T14:52:00.683Z,29.50
2018-05-29T14:54:28.536Z,29.40
2018-05-29T14:56:56.363Z,29.50
2018-05-29T14:59:24.245Z,29.50
2018-05-29T15:01:52.852Z,29.50
2018-05-29T15:04:20.709Z,29.50
2018-05-29T15:06:49.342Z,29.50
2018-05-29T15:09:17.190Z,29.50
2018-05-29T15:11:45.066Z,29.40
2018-05-29T15:14:12.960Z,29.40
2018-05-29T15:16:40.799Z,29.40
2018-05-29T15:19:08.675Z,29.50
2018-05-29T15:21:36.543Z,29.50
2018-05-29T15:24:04.437Z,29.50
2018-05-29T15:26:32.314Z,29.50
2018-05-29T15:29:00.929Z,29.50
2018-05-29T15:31:28.806Z,29.50
2018-05-29T15:33:56.695Z,29.50
2018-05-29T15:36:24.574Z,29.50
2018-05-29T15:38:52.436Z,29.50
2018-05-29T15:41:20.282Z,29.40
2018-05-29T15:43:48.134Z,29.40
2018-05-29T15:48:55.391Z,29.30
2018-05-29T15:51:24.079Z,29.30
2018-05-29T15:53:51.937Z,29.20
2018-05-29T15:56:19.828Z,29.30
2018-05-29T15:58:48.530Z,29.30
2018-05-29T16:01:16.386Z,29.20
2018-05-29T16:03:45.043Z,29.20
2018-05-29T16:06:13.179Z,29.20
2018-05-29T16:08:41.984Z,29.10
2018-05-29T16:11:11.079Z,29.00
2018-05-29T16:13:39.383Z,29.00
2018-05-29T16:16:08.515Z,28.90
2018-05-29T16:18:36.728Z,28.90
2018-05-29T16:21:04.966Z,28.90
2018-05-29T16:23:33.069Z,28.90
2018-05-29T16:26:01.104Z,28.90
2018-05-29T16:28:29.172Z,28.90
2018-05-29T16:30:57.163Z,28.90
2018-05-29T16:33:25.287Z,28.80
2018-05-29T16:35:54.093Z,28.50
2018-05-29T16:38:22.984Z,28.20
2018-05-29T16:40:51.335Z,28.20
2018-05-29T16:43:19.378Z,28.00
2018-05-29T16:45:48.376Z,27.60
2018-05-29T16:48:16.516Z,27.60
2018-05-29T16:50:47.354Z,27.40
2018-05-29T16:53:15.624Z,27.10
2018-05-29T16:55:43.739Z,26.70
2018-05-29T16:58:11.803Z,26.30
2018-05-29T17:00:40.080Z,25.70
2018-05-29T17:03:09.434Z,24.40
2018-05-29T17:05:37.997Z,24.40
2018-05-29T17:08:06.286Z,24.00
2018-05-29T17:10:34.673Z,23.70
2018-05-29T17:13:03.210Z,23.40
2018-05-29T17:15:31.684Z,23.30
2018-05-29T17:17:59.971Z,23.10
2018-05-29T17:20:28.937Z,22.80
2018-05-29T17:22:57.190Z,22.80
2018-05-29T17:25:25.564Z,22.60
2018-05-29T17:27:53.838Z,22.50
2018-05-29T17:30:22.214Z,22.40
2018-05-29T17:32:50.459Z,22.40
2018-05-29T17:35:19.571Z,22.20
2018-05-29T17:37:48.009Z,22.20
2018-05-29T17:40:17.143Z,22.20
2018-05-29T17:42:45.491Z,22.20
2018-05-29T17:45:13.696Z,22.20
2018-05-29T17:47:42.815Z,22.20
2018-05-29T17:50:11.069Z,22.20
2018-05-29T17:52:39.297Z,22.20
2018-05-29T17:55:07.705Z,22.20
2018-05-29T17:57:36.177Z,22.20
2018-05-29T18:00:04.831Z,22.20
2018-05-29T18:02:33.119Z,22.30
2018-05-29T18:05:01.368Z,22.30
2018-05-29T18:07:29.709Z,22.30
2018-05-29T18:09:58.661Z,22.30
2018-05-29T18:12:27.101Z,22.30
2018-05-29T18:14:55.414Z,22.30
2018-05-29T18:17:24.741Z,22.30
2018-05-29T18:19:56.199Z,22.20
2018-05-29T18:22:27.729Z,22.20
2018-05-29T18:24:59.718Z,22.20
2018-05-29T18:27:31.006Z,22.20
2018-05-29T18:29:59.343Z,22.20
2018-05-29T18:32:28.539Z,22.10
2018-05-29T18:34:56.960Z,22.10
2018-05-29T18:37:25.242Z,22.10
2018-05-29T18:39:53.578Z,22.10
2018-05-29T18:42:22.736Z,22.00
2018-05-29T18:44:54.584Z,22.00
2018-05-29T18:47:22.859Z,22.00
2018-05-29T18:49:51.246Z,21.90
2018-05-29T18:52:20.882Z,21.80
2018-05-29T18:54:49.187Z,21.80
2018-05-29T18:57:17.492Z,21.80
2018-05-29T18:59:45.772Z,21.80
2018-05-29T19:02:14.195Z,21.80
2018-05-29T19:04:43.416Z,21.80
2018-05-29T19:07:14.274Z,21.80
2018-05-29T19:09:45.506Z,21.80
2018-05-29T19:12:19.922Z,21.80
2018-05-29T19:14:50.643Z,21.90
2018-05-29T19:17:22.607Z,21.90
2018-05-29T19:19:51.044Z,21.80
2018-05-29T19:22:19.361Z,21.90
2018-05-29T19:24:48.453Z,21.90
2018-05-29T19:27:16.916Z,21.80
2018-05-29T19:29:45.374Z,21.90
2018-05-29T19:32:13.571Z,21.80
2018-05-29T19:34:42.077Z,21.80
2018-05-29T19:37:11.352Z,21.80
2018-05-29T19:39:40.486Z,21.80
2018-05-29T19:42:08.815Z,21.80
2018-05-29T19:44:37.068Z,21.80
2018-05-29T19:47:05.454Z,21.70
2018-05-29T19:49:33.745Z,21.70
2018-05-29T19:52:02.033Z,21.70
2018-05-29T19:54:30.318Z,21.70
2018-05-29T19:56:58.195Z,21.70
2018-05-29T19:59:26.112Z,21.70
2018-05-29T20:01:53.992Z,21.70
2018-05-29T20:04:21.881Z,21.60
2018-05-29T20:06:49.830Z,21.70
2018-05-29T20:09:17.760Z,21.70
2018-05-29T20:11:45.704Z,21.70
2018-05-29T20:14:13.627Z,21.70
2018-05-29T20:16:42.938Z,21.70
2018-05-29T20:19:10.825Z,21.70
2018-05-29T20:21:38.721Z,21.70
2018-05-29T20:24:07.373Z,21.70
2018-05-29T20:26:35.258Z,21.70
2018-05-29T20:29:03.194Z,21.70
2018-05-29T20:31:31.185Z,21.70
2018-05-29T20:33:59.039Z,21.70
2018-05-29T20:36:26.955Z,21.60
2018-05-29T20:38:55.578Z,21.60
2018-05-29T20:41:23.439Z,21.60
2018-05-29T20:43:51.323Z,21.60
2018-05-29T20:46:19.204Z,21.60
2018-05-29T20:48:47.116Z,21.60
2018-05-29T20:51:14.977Z,21.60
2018-05-29T20:53:42.835Z,21.60
2018-05-29T20:56:11.459Z,21.50
2018-05-29T20:58:39.313Z,21.50
2018-05-29T21:01:07.226Z,21.50
2018-05-29T21:03:35.157Z,21.50
2018-05-29T21:06:03.060Z,21.50
2018-05-29T21:08:30.893Z,21.50
2018-05-29T21:10:58.753Z,21.40
2018-05-29T21:13:26.632Z,21.40
2018-05-29T21:15:54.488Z,21.30
2018-05-29T21:18:22.408Z,21.30
2018-05-29T21:20:51.062Z,21.20
2018-05-29T21:23:18.953Z,21.20
2018-05-29T21:25:46.820Z,21.20
2018-05-29T21:28:14.681Z,21.10
2018-05-29T21:30:42.552Z,21.10
2018-05-29T21:33:10.413Z,21.10
2018-05-29T21:35:38.277Z,21.00
2018-05-29T21:38:06.147Z,21.00
2018-05-29T21:40:34.023Z,20.90
2018-05-29T21:43:01.892Z,20.90
2018-05-29T21:45:30.488Z,20.80
2018-05-29T21:47:59.104Z,20.80
2018-05-29T21:50:26.942Z,20.80
2018-05-29T21:52:55.570Z,20.80
2018-05-29T21:55:23.432Z,20.80
2018-05-29T21:57:51.277Z,20.80
2018-05-29T22:00:19.193Z,20.80
2018-05-29T22:02:47.053Z,20.80
2018-05-29T22:05:14.947Z,20.80
2018-05-29T22:07:43.588Z,20.80
2018-05-29T22:10:12.295Z,20.80
2018-05-29T22:12:40.130Z,20.70
2018-05-29T22:15:07.995Z,20.70
2018-05-29T22:17:35.864Z,20.70
2018-05-29T22:20:03.834Z,20.70
2018-05-29T22:22:31.707Z,20.70
2018-05-29T22:24:59.558Z,20.70
2018-05-29T22:27:27.481Z,20.70
2018-05-29T22:29:55.348Z,20.70
2018-05-29T22:32:23.225Z,20.70
2018-05-29T22:34:51.852Z,20.70
2018-05-29T22:37:19.709Z,20.70
2018-05-29T22:39:47.571Z,20.70
2018-05-29T22:42:15.488Z,20.70
2018-05-29T22:44:43.378Z,20.70
2018-05-29T22:47:12.001Z,20.70
2018-05-29T22:49:39.846Z,20.70
2018-05-29T22:52:07.679Z,20.70
2018-05-29T22:54:35.562Z,20.70
2018-05-29T22:57:04.261Z,20.70
2018-05-29T22:59:32.136Z,20.70
2018-05-29T23:01:59.980Z,20.70
2018-05-29T23:04:28.654Z,20.70
2018-05-29T23:06:56.496Z,20.70
2018-05-29T23:09:24.354Z,20.70
2018-05-29T23:11:52.197Z,20.70
2018-05-29T23:14:20.056Z,20.70
2018-05-29T23:16:47.909Z,20.70
2018-05-29T23:19:15.772Z,20.70
2018-05-29T23:21:43.597Z,20.70
2018-05-29T23:24:11.483Z,20.70
2018-05-29T23:26:39.337Z,20.70
2018-05-29T23:29:07.200Z,20.70
2018-05-29T23:31:35.076Z,20.70
2018-05-29T23:34:02.956Z,20.70
2018-05-29T23:36:31.587Z,20.70
2018-05-29T23:38:59.471Z,20.70
2018-05-29T23:41:27.301Z,20.70
2018-05-29T23:43:55.130Z,20.70
2018-05-29T23:46:22.978Z,20.70
2018-05-29T23:48:50.855Z,20.70
2018-05-29T23:51:18.705Z,20.70
2018-05-29T23:53:46.542Z,20.70
2018-05-29T23:56:14.406Z,20.70
2018-05-29T23:58:42.260Z,20.70
